Holly Springs, North Carolina
Current Conditions -  °F | °C
As of 7:51 PM on Friday 24 Oct 2014 (Local Time) from KRDU Reporting Station
Broken Clouds Broken Clouds  
Wind Chill: 55°   Ceiling: 19000
Heat Index: 55°   Visibility: 10mi
Dew Point: 48°   Wind: 0mph
Humidity: 77%   Direction: NA
Pressure: 29.98"   Gusts: NA
Location:  35.65°N, 78.83°W
Report Text: KRDU 242351Z 00000KT 10SM BKN190 BKN250 13/09 A2998 RMK AO2 SLP151 T01280089 10211 20128 52005 $
Loading
Personal Weather Stations






























Interactive Weather Map
Tropical Storm Tracking
New forecast layout! Learn more

10-Day Weather Forecast

Advertisements
Track Severe Weather on mobile